This is the latest recevied weather packets stored in our database for station/object DL1GRJ-13. If no packets are shown the sender has not sent any weather packets the latest 10 day(s).
| Time | Temp. | Humidity | Pressure | Rain* | Wind** | Luminosity | Snow |
|---|---|---|---|---|---|---|---|
| 1777930267 | 11.11° C | 68% | 1015.4 hPa | - | - | - | - |
| 1777928467 | 11.11° C | 68% | 1015.6 hPa | - | - | - | - |
| 1777926667 | 11.11° C | 68% | 1015.5 hPa | - | - | - | - |
| 1777924867 | 11.67° C | 67% | 1015.5 hPa | - | - | - | - |
| 1777923067 | 11.67° C | 67% | 1015.5 hPa | - | - | - | - |
| 1777921267 | 11.67° C | 66% | 1015.4 hPa | - | - | - | - |
| 1777919466 | 12.22° C | 66% | 1015.6 hPa | - | - | - | - |
| 1777917666 | 12.22° C | 65% | 1015.8 hPa | - | - | - | - |
| 1777915866 | 13.33° C | 58% | 1015.8 hPa | - | - | - | - |
| 1777914066 | 13.89° C | 53% | 1015.8 hPa | - | - | - | - |
| 1777912266 | 15.56° C | 49% | 1015.9 hPa | - | - | - | - |
| 1777910466 | 16.11° C | 45% | 1015.8 hPa | - | - | - | - |
| 1777908666 | 16.67° C | 45% | 1015.7 hPa | - | - | - | - |
| 1777906866 | 17.22° C | 42% | 1015.6 hPa | - | - | - | - |
| 1777905066 | 18.33° C | 39% | 1015.6 hPa | - | - | - | - |
| 1777903265 | 18.89° C | 40% | 1015.7 hPa | - | - | - | - |
| 1777901465 | 17.22° C | 43% | 1016 hPa | - | - | - | - |
| 1777899665 | 18.33° C | 34% | 1015.8 hPa | - | - | - | - |
| 1777897865 | 19.44° C | 33% | 1015.9 hPa | - | - | - | - |
| 1777896065 | 20.56° C | 30% | 1015.8 hPa | - | - | - | - |
| 1777894265 | 19.44° C | 31% | 1016 hPa | - | - | - | - |
| 1777892465 | 19.44° C | 31% | 1016.2 hPa | - | - | - | - |
| 1777890664 | 20° C | 32% | 1016.5 hPa | - | - | - | - |
| 1777888864 | 17.78° C | 35% | 1016.7 hPa | - | - | - | - |
| 1777887064 | 17.78° C | 36% | 1016.8 hPa | - | - | - | - |
* Rain since midnight (hover to see other rain measurements)
** Current wind speed in m/s (hover to see current wind gust speed)